sensor_id;sensor_type;location;lat;lon;timestamp;P1;P4;P2;P0;N10;N4;N25;N1;N05;TS
79466;SPS30;68933;49.726;9.226;2023-08-17T00:00:48;2.8;;2.8;2.7;;;;;;
79466;SPS30;68933;49.726;9.226;2023-08-17T00:03:01;2.8;;2.8;2.7;;;;;;
79466;SPS30;68933;49.726;9.226;2023-08-17T00:05:14;2.7;;2.7;2.6;;;;;;
79466;SPS30;68933;49.726;9.226;2023-08-17T00:07:27;2.7;;2.7;2.6;;;;;;
79466;SPS30;68933;49.726;9.226;2023-08-17T00:09:40;2.3;;2.3;2.2;;;;;;
79466;SPS30;68933;49.726;9.226;2023-08-17T00:11:53;2.3;;2.3;2.2;;;;;;
79466;SPS30;68933;49.726;9.226;2023-08-17T00:14:06;2.7;;2.7;2.5;;;;;;
79466;SPS30;68933;49.726;9.226;2023-08-17T00:16:19;2.7;;2.7;2.5;;;;;;
79466;SPS30;68933;49.726;9.226;2023-08-17T00:18:32;2.7;;2.7;2.5;;;;;;
79466;SPS30;68933;49.726;9.226;2023-08-17T00:20:45;2.3;;2.3;2.2;;;;;;
79466;SPS30;68933;49.726;9.226;2023-08-17T00:22:58;2.3;;2.3;2.2;;;;;;
79466;SPS30;68933;49.726;9.226;2023-08-17T00:25:11;2.8;;2.8;2.7;;;;;;
79466;SPS30;68933;49.726;9.226;2023-08-17T00:27:24;2.8;;2.8;2.7;;;;;;
79466;SPS30;68933;49.726;9.226;2023-08-17T00:29:37;2.8;;2.8;2.7;;;;;;
79466;SPS30;68933;49.726;9.226;2023-08-17T00:31:50;3.3;;3.3;3.2;;;;;;
79466;SPS30;68933;49.726;9.226;2023-08-17T00:34:03;3.3;;3.3;3.2;;;;;;
79466;SPS30;68933;49.726;9.226;2023-08-17T00:36:16;2.5;;2.5;2.4;;;;;;
79466;SPS30;68933;49.726;9.226;2023-08-17T00:38:29;2.5;;2.5;2.4;;;;;;
79466;SPS30;68933;49.726;9.226;2023-08-17T00:40:42;2.3;;2.3;2.2;;;;;;
79466;SPS30;68933;49.726;9.226;2023-08-17T00:42:55;2.3;;2.3;2.2;;;;;;
79466;SPS30;68933;49.726;9.226;2023-08-17T00:45:08;2.3;;2.3;2.2;;;;;;
79466;SPS30;68933;49.726;9.226;2023-08-17T00:47:21;2.4;;2.4;2.3;;;;;;
79466;SPS30;68933;49.726;9.226;2023-08-17T00:49:34;2.4;;2.4;2.3;;;;;;
79466;SPS30;68933;49.726;9.226;2023-08-17T00:51:47;2.6;;2.6;2.5;;;;;;
79466;SPS30;68933;49.726;9.226;2023-08-17T00:54:00;2.6;;2.6;2.5;;;;;;
79466;SPS30;68933;49.726;9.226;2023-08-17T00:56:13;2.6;;2.6;2.5;;;;;;
79466;SPS30;68933;49.726;9.226;2023-08-17T00:58:26;2.9;;2.9;2.7;;;;;;
79466;SPS30;68933;49.726;9.226;2023-08-17T01:00:39;2.9;;2.9;2.7;;;;;;
79466;SPS30;68933;49.726;9.226;2023-08-17T01:02:52;2.3;;2.3;2.2;;;;;;
79466;SPS30;68933;49.726;9.226;2023-08-17T01:05:05;2.3;;2.3;2.2;;;;;;
79466;SPS30;68933;49.726;9.226;2023-08-17T01:07:18;2.1;;2.1;2;;;;;;
79466;SPS30;68933;49.726;9.226;2023-08-17T01:09:31;2.1;;2.1;2;;;;;;
79466;SPS30;68933;49.726;9.226;2023-08-17T01:11:45;2.1;;2.1;2;;;;;;
79466;SPS30;68933;49.726;9.226;2023-08-17T01:13:58;2.3;;2.3;2.2;;;;;;
79466;SPS30;68933;49.726;9.226;2023-08-17T01:16:11;2.3;;2.3;2.2;;;;;;
79466;SPS30;68933;49.726;9.226;2023-08-17T01:18:23;3.2;;3.2;3.1;;;;;;
79466;SPS30;68933;49.726;9.226;2023-08-17T01:20:36;3.2;;3.2;3.1;;;;;;
79466;SPS30;68933;49.726;9.226;2023-08-17T01:22:49;3.2;;3.2;3.1;;;;;;
79466;SPS30;68933;49.726;9.226;2023-08-17T01:25:02;2.5;;2.5;2.4;;;;;;
79466;SPS30;68933;49.726;9.226;2023-08-17T01:27:15;2.5;;2.5;2.4;;;;;;
79466;SPS30;68933;49.726;9.226;2023-08-17T01:29:28;3;;3;2.9;;;;;;
79466;SPS30;68933;49.726;9.226;2023-08-17T01:31:42;3;;3;2.9;;;;;;
79466;SPS30;68933;49.726;9.226;2023-08-17T01:33:54;2.4;;2.4;2.3;;;;;;
79466;SPS30;68933;49.726;9.226;2023-08-17T01:36:10;2.4;;2.4;2.3;;;;;;
79466;SPS30;68933;49.726;9.226;2023-08-17T01:38:21;2.7;;2.7;2.5;;;;;;
79466;SPS30;68933;49.726;9.226;2023-08-17T01:40:33;2.7;;2.7;2.5;;;;;;
79466;SPS30;68933;49.726;9.226;2023-08-17T01:42:46;2.7;;2.7;2.5;;;;;;
79466;SPS30;68933;49.726;9.226;2023-08-17T01:44:59;2.8;;2.8;2.6;;;;;;
79466;SPS30;68933;49.726;9.226;2023-08-17T01:47:12;2.8;;2.8;2.6;;;;;;
79466;SPS30;68933;49.726;9.226;2023-08-17T01:49:25;2.7;;2.7;2.5;;;;;;
79466;SPS30;68933;49.726;9.226;2023-08-17T01:51:38;2.7;;2.7;2.5;;;;;;
79466;SPS30;68933;49.726;9.226;2023-08-17T01:53:51;3.1;;3.1;2.9;;;;;;
79466;SPS30;68933;49.726;9.226;2023-08-17T01:56:04;3.1;;3.1;2.9;;;;;;
79466;SPS30;68933;49.726;9.226;2023-08-17T01:58:17;2.6;;2.6;2.5;;;;;;
79466;SPS30;68933;49.726;9.226;2023-08-17T02:00:30;2.6;;2.6;2.5;;;;;;
79466;SPS30;68933;49.726;9.226;2023-08-17T02:02:43;2.6;;2.6;2.5;;;;;;
79466;SPS30;68933;49.726;9.226;2023-08-17T02:04:56;3.2;;3.2;3;;;;;;
79466;SPS30;68933;49.726;9.226;2023-08-17T02:07:09;3.2;;3.2;3;;;;;;
79466;SPS30;68933;49.726;9.226;2023-08-17T02:09:22;2.7;;2.7;2.6;;;;;;
79466;SPS30;68933;49.726;9.226;2023-08-17T02:11:35;2.7;;2.7;2.6;;;;;;
79466;SPS30;68933;49.726;9.226;2023-08-17T02:13:48;2.3;;2.3;2.2;;;;;;
79466;SPS30;68933;49.726;9.226;2023-08-17T02:16:01;2.3;;2.3;2.2;;;;;;
79466;SPS30;68933;49.726;9.226;2023-08-17T02:18:14;2.3;;2.3;2.2;;;;;;
79466;SPS30;68933;49.726;9.226;2023-08-17T02:20:27;2.8;;2.8;2.6;;;;;;
79466;SPS30;68933;49.726;9.226;2023-08-17T02:22:40;2.8;;2.8;2.6;;;;;;
79466;SPS30;68933;49.726;9.226;2023-08-17T02:24:53;2.9;;2.9;2.8;;;;;;
79466;SPS30;68933;49.726;9.226;2023-08-17T02:27:06;2.9;;2.9;2.8;;;;;;
79466;SPS30;68933;49.726;9.226;2023-08-17T02:29:19;3;;3;2.8;;;;;;
79466;SPS30;68933;49.726;9.226;2023-08-17T02:31:32;3;;3;2.8;;;;;;
79466;SPS30;68933;49.726;9.226;2023-08-17T02:33:45;2.6;;2.6;2.5;;;;;;
79466;SPS30;68933;49.726;9.226;2023-08-17T02:35:58;2.6;;2.6;2.5;;;;;;
79466;SPS30;68933;49.726;9.226;2023-08-17T02:38:11;3.1;;3.1;3;;;;;;
79466;SPS30;68933;49.726;9.226;2023-08-17T02:40:24;3.1;;3.1;3;;;;;;
79466;SPS30;68933;49.726;9.226;2023-08-17T02:42:37;3.1;;3.1;3;;;;;;
79466;SPS30;68933;49.726;9.226;2023-08-17T02:44:50;2.5;;2.5;2.4;;;;;;
79466;SPS30;68933;49.726;9.226;2023-08-17T02:47:03;2.5;;2.5;2.4;;;;;;
79466;SPS30;68933;49.726;9.226;2023-08-17T02:49:16;3.5;;3.5;3.4;;;;;;
79466;SPS30;68933;49.726;9.226;2023-08-17T02:51:29;3.5;;3.5;3.4;;;;;;
79466;SPS30;68933;49.726;9.226;2023-08-17T02:53:42;3;;3;2.8;;;;;;
79466;SPS30;68933;49.726;9.226;2023-08-17T02:55:55;3;;3;2.8;;;;;;
79466;SPS30;68933;49.726;9.226;2023-08-17T02:58:08;2.7;;2.7;2.6;;;;;;
79466;SPS30;68933;49.726;9.226;2023-08-17T03:00:21;2.7;;2.7;2.6;;;;;;
79466;SPS30;68933;49.726;9.226;2023-08-17T03:02:34;3.1;;3.1;3;;;;;;
79466;SPS30;68933;49.726;9.226;2023-08-17T03:04:47;3.1;;3.1;3;;;;;;
79466;SPS30;68933;49.726;9.226;2023-08-17T03:07:00;3.1;;3.1;3;;;;;;
79466;SPS30;68933;49.726;9.226;2023-08-17T03:09:13;3.8;;3.8;3.7;;;;;;
79466;SPS30;68933;49.726;9.226;2023-08-17T03:11:26;3.8;;3.8;3.7;;;;;;
79466;SPS30;68933;49.726;9.226;2023-08-17T03:13:39;2.9;;2.9;2.8;;;;;;
79466;SPS30;68933;49.726;9.226;2023-08-17T03:15:52;2.9;;2.9;2.8;;;;;;
79466;SPS30;68933;49.726;9.226;2023-08-17T03:18:05;2.9;;2.9;2.7;;;;;;
79466;SPS30;68933;49.726;9.226;2023-08-17T03:20:18;2.9;;2.9;2.7;;;;;;
79466;SPS30;68933;49.726;9.226;2023-08-17T03:22:31;3.5;;3.5;3.4;;;;;;
79466;SPS30;68933;49.726;9.226;2023-08-17T03:24:44;3.5;;3.5;3.4;;;;;;
79466;SPS30;68933;49.726;9.226;2023-08-17T03:26:57;3.5;;3.5;3.4;;;;;;
79466;SPS30;68933;49.726;9.226;2023-08-17T03:29:10;3.3;;3.3;3.2;;;;;;
79466;SPS30;68933;49.726;9.226;2023-08-17T03:31:23;3.3;;3.3;3.2;;;;;;
79466;SPS30;68933;49.726;9.226;2023-08-17T03:33:36;2.9;;2.9;2.8;;;;;;
79466;SPS30;68933;49.726;9.226;2023-08-17T03:35:49;2.9;;2.9;2.8;;;;;;
79466;SPS30;68933;49.726;9.226;2023-08-17T03:38:02;3.3;;3.3;3.1;;;;;;
79466;SPS30;68933;49.726;9.226;2023-08-17T03:40:15;3.3;;3.3;3.1;;;;;;
79466;SPS30;68933;49.726;9.226;2023-08-17T03:42:28;3.3;;3.3;3.1;;;;;;
79466;SPS30;68933;49.726;9.226;2023-08-17T03:44:41;3.4;;3.4;3.2;;;;;;
79466;SPS30;68933;49.726;9.226;2023-08-17T03:46:54;3.4;;3.4;3.2;;;;;;
79466;SPS30;68933;49.726;9.226;2023-08-17T03:49:07;3.6;;3.6;3.5;;;;;;
79466;SPS30;68933;49.726;9.226;2023-08-17T03:51:20;3.6;;3.6;3.5;;;;;;
79466;SPS30;68933;49.726;9.226;2023-08-17T03:53:33;3.6;;3.6;3.5;;;;;;
79466;SPS30;68933;49.726;9.226;2023-08-17T03:55:46;3.6;;3.6;3.5;;;;;;
79466;SPS30;68933;49.726;9.226;2023-08-17T03:57:59;3.6;;3.6;3.5;;;;;;
79466;SPS30;68933;49.726;9.226;2023-08-17T04:00:12;3.7;;3.7;3.6;;;;;;
79466;SPS30;68933;49.726;9.226;2023-08-17T04:02:25;3.7;;3.7;3.6;;;;;;
79466;SPS30;68933;49.726;9.226;2023-08-17T04:04:38;3.7;;3.7;3.6;;;;;;
79466;SPS30;68933;49.726;9.226;2023-08-17T04:06:51;3.2;;3.2;3.1;;;;;;
79466;SPS30;68933;49.726;9.226;2023-08-17T04:09:04;3.2;;3.2;3.1;;;;;;
79466;SPS30;68933;49.726;9.226;2023-08-17T04:11:17;3.2;;3.2;3.1;;;;;;
79466;SPS30;68933;49.726;9.226;2023-08-17T04:13:30;3.2;;3.2;3.1;;;;;;
79466;SPS30;68933;49.726;9.226;2023-08-17T04:15:43;3.4;;3.4;3.2;;;;;;
79466;SPS30;68933;49.726;9.226;2023-08-17T04:17:56;3.4;;3.4;3.2;;;;;;
79466;SPS30;68933;49.726;9.226;2023-08-17T04:20:09;3.4;;3.4;3.2;;;;;;
79466;SPS30;68933;49.726;9.226;2023-08-17T04:22:22;3.4;;3.4;3.2;;;;;;
79466;SPS30;68933;49.726;9.226;2023-08-17T04:24:35;3.4;;3.4;3.2;;;;;;
79466;SPS30;68933;49.726;9.226;2023-08-17T04:26:48;3.8;;3.8;3.6;;;;;;
79466;SPS30;68933;49.726;9.226;2023-08-17T04:29:01;3.8;;3.8;3.6;;;;;;
79466;SPS30;68933;49.726;9.226;2023-08-17T04:31:14;3.3;;3.3;3.1;;;;;;
79466;SPS30;68933;49.726;9.226;2023-08-17T04:33:27;3.3;;3.3;3.1;;;;;;
79466;SPS30;68933;49.726;9.226;2023-08-17T04:35:40;3.3;;3.3;3.1;;;;;;
79466;SPS30;68933;49.726;9.226;2023-08-17T04:37:53;2.9;;2.9;2.8;;;;;;
79466;SPS30;68933;49.726;9.226;2023-08-17T04:40:06;2.9;;2.9;2.8;;;;;;
79466;SPS30;68933;49.726;9.226;2023-08-17T04:42:19;3.4;;3.4;3.3;;;;;;
79466;SPS30;68933;49.726;9.226;2023-08-17T04:44:32;3.4;;3.4;3.3;;;;;;
79466;SPS30;68933;49.726;9.226;2023-08-17T04:46:45;3.4;;3.4;3.2;;;;;;
79466;SPS30;68933;49.726;9.226;2023-08-17T04:48:58;3.4;;3.4;3.2;;;;;;
79466;SPS30;68933;49.726;9.226;2023-08-17T04:51:11;3.4;;3.4;3.2;;;;;;
79466;SPS30;68933;49.726;9.226;2023-08-17T04:53:24;3.2;;3.2;3.1;;;;;;
79466;SPS30;68933;49.726;9.226;2023-08-17T04:55:37;3.2;;3.2;3.1;;;;;;
79466;SPS30;68933;49.726;9.226;2023-08-17T04:57:50;3.2;;3.2;3.1;;;;;;
79466;SPS30;68933;49.726;9.226;2023-08-17T05:00:03;3.2;;3.2;3.1;;;;;;
79466;SPS30;68933;49.726;9.226;2023-08-17T05:02:16;3.9;;3.9;3.7;;;;;;
79466;SPS30;68933;49.726;9.226;2023-08-17T05:04:29;3.9;;3.9;3.7;;;;;;
79466;SPS30;68933;49.726;9.226;2023-08-17T05:06:42;3.9;;3.9;3.7;;;;;;
79466;SPS30;68933;49.726;9.226;2023-08-17T05:08:55;3.5;;3.5;3.3;;;;;;
79466;SPS30;68933;49.726;9.226;2023-08-17T05:11:08;3.5;;3.5;3.3;;;;;;
79466;SPS30;68933;49.726;9.226;2023-08-17T05:13:21;3.4;;3.4;3.2;;;;;;
79466;SPS30;68933;49.726;9.226;2023-08-17T05:15:34;3.4;;3.4;3.2;;;;;;
79466;SPS30;68933;49.726;9.226;2023-08-17T05:17:47;3.2;;3.2;3;;;;;;
79466;SPS30;68933;49.726;9.226;2023-08-17T05:20:00;3.2;;3.2;3;;;;;;
79466;SPS30;68933;49.726;9.226;2023-08-17T05:22:13;3.6;;3.6;3.4;;;;;;
79466;SPS30;68933;49.726;9.226;2023-08-17T05:24:26;3.6;;3.6;3.4;;;;;;
79466;SPS30;68933;49.726;9.226;2023-08-17T05:26:39;3.6;;3.6;3.4;;;;;;
79466;SPS30;68933;49.726;9.226;2023-08-17T05:28:52;3.8;;3.8;3.6;;;;;;
79466;SPS30;68933;49.726;9.226;2023-08-17T05:31:05;3.8;;3.8;3.6;;;;;;
79466;SPS30;68933;49.726;9.226;2023-08-17T05:33:18;3.5;;3.5;3.3;;;;;;
79466;SPS30;68933;49.726;9.226;2023-08-17T05:35:31;3.5;;3.5;3.3;;;;;;
79466;SPS30;68933;49.726;9.226;2023-08-17T05:37:44;3.9;;3.9;3.7;;;;;;
79466;SPS30;68933;49.726;9.226;2023-08-17T05:39:57;3.9;;3.9;3.7;;;;;;
79466;SPS30;68933;49.726;9.226;2023-08-17T05:42:10;3.5;;3.5;3.4;;;;;;
79466;SPS30;68933;49.726;9.226;2023-08-17T05:44:23;3.5;;3.5;3.4;;;;;;
79466;SPS30;68933;49.726;9.226;2023-08-17T05:46:36;3.5;;3.5;3.4;;;;;;
79466;SPS30;68933;49.726;9.226;2023-08-17T05:48:49;4.2;;4.2;4;;;;;;
79466;SPS30;68933;49.726;9.226;2023-08-17T05:51:02;4.2;;4.2;4;;;;;;
79466;SPS30;68933;49.726;9.226;2023-08-17T05:53:15;3.9;;3.9;3.8;;;;;;
79466;SPS30;68933;49.726;9.226;2023-08-17T05:55:28;3.9;;3.9;3.8;;;;;;
79466;SPS30;68933;49.726;9.226;2023-08-17T05:57:41;4.5;;4.5;4.3;;;;;;
79466;SPS30;68933;49.726;9.226;2023-08-17T05:59:54;4.5;;4.5;4.3;;;;;;
79466;SPS30;68933;49.726;9.226;2023-08-17T06:02:07;4.7;;4.7;4.5;;;;;;
79466;SPS30;68933;49.726;9.226;2023-08-17T06:04:20;4.7;;4.7;4.5;;;;;;
79466;SPS30;68933;49.726;9.226;2023-08-17T06:06:33;5.3;;5.3;5;;;;;;
79466;SPS30;68933;49.726;9.226;2023-08-17T06:08:46;5.3;;5.3;5;;;;;;
79466;SPS30;68933;49.726;9.226;2023-08-17T06:10:59;4;;4;3.8;;;;;;
79466;SPS30;68933;49.726;9.226;2023-08-17T06:13:12;4;;4;3.8;;;;;;
79466;SPS30;68933;49.726;9.226;2023-08-17T06:15:25;4;;4;3.8;;;;;;
79466;SPS30;68933;49.726;9.226;2023-08-17T06:17:38;4.7;;4.7;4.5;;;;;;
79466;SPS30;68933;49.726;9.226;2023-08-17T06:19:51;4.7;;4.7;4.5;;;;;;
79466;SPS30;68933;49.726;9.226;2023-08-17T06:22:04;4.7;;4.7;4.4;;;;;;
79466;SPS30;68933;49.726;9.226;2023-08-17T06:24:17;4.7;;4.7;4.4;;;;;;
79466;SPS30;68933;49.726;9.226;2023-08-17T06:26:30;4.7;;4.7;4.4;;;;;;
79466;SPS30;68933;49.726;9.226;2023-08-17T06:28:43;5.2;;5.2;4.9;;;;;;
79466;SPS30;68933;49.726;9.226;2023-08-17T06:30:56;5.2;;5.2;4.9;;;;;;
79466;SPS30;68933;49.726;9.226;2023-08-17T06:33:09;5.8;;5.8;5.5;;;;;;
79466;SPS30;68933;49.726;9.226;2023-08-17T06:35:22;5.8;;5.8;5.5;;;;;;
79466;SPS30;68933;49.726;9.226;2023-08-17T06:37:35;5.8;;5.8;5.5;;;;;;
79466;SPS30;68933;49.726;9.226;2023-08-17T06:39:48;5.2;;5.2;5;;;;;;
79466;SPS30;68933;49.726;9.226;2023-08-17T06:42:01;5.2;;5.2;5;;;;;;
79466;SPS30;68933;49.726;9.226;2023-08-17T06:44:14;4.9;;4.9;4.6;;;;;;
79466;SPS30;68933;49.726;9.226;2023-08-17T06:46:27;4.9;;4.9;4.6;;;;;;
79466;SPS30;68933;49.726;9.226;2023-08-17T06:48:40;5;;5;4.8;;;;;;
79466;SPS30;68933;49.726;9.226;2023-08-17T06:50:53;5;;5;4.8;;;;;;
79466;SPS30;68933;49.726;9.226;2023-08-17T06:53:06;5;;5;4.8;;;;;;
79466;SPS30;68933;49.726;9.226;2023-08-17T06:55:19;4.2;;4.2;4;;;;;;
79466;SPS30;68933;49.726;9.226;2023-08-17T06:57:32;4.2;;4.2;4;;;;;;
79466;SPS30;68933;49.726;9.226;2023-08-17T06:59:45;5.4;;5.4;5.1;;;;;;
79466;SPS30;68933;49.726;9.226;2023-08-17T07:01:58;5.4;;5.4;5.1;;;;;;
79466;SPS30;68933;49.726;9.226;2023-08-17T07:04:11;5.4;;5.4;5.1;;;;;;
79466;SPS30;68933;49.726;9.226;2023-08-17T07:06:24;6;;6;5.7;;;;;;
79466;SPS30;68933;49.726;9.226;2023-08-17T07:08:37;6;;6;5.7;;;;;;
79466;SPS30;68933;49.726;9.226;2023-08-17T07:10:50;7.1;;7.1;6.8;;;;;;
79466;SPS30;68933;49.726;9.226;2023-08-17T07:13:03;7.1;;7.1;6.8;;;;;;
79466;SPS30;68933;49.726;9.226;2023-08-17T07:15:16;6.8;;6.8;6.5;;;;;;
79466;SPS30;68933;49.726;9.226;2023-08-17T07:17:29;6.8;;6.8;6.5;;;;;;
79466;SPS30;68933;49.726;9.226;2023-08-17T07:19:42;6.8;;6.8;6.5;;;;;;
79466;SPS30;68933;49.726;9.226;2023-08-17T07:21:55;16.4;;16.4;15.6;;;;;;
79466;SPS30;68933;49.726;9.226;2023-08-17T07:24:11;16.4;;16.4;15.6;;;;;;
79466;SPS30;68933;49.726;9.226;2023-08-17T07:26:21;6.5;;6.5;6.2;;;;;;
79466;SPS30;68933;49.726;9.226;2023-08-17T07:28:34;6.5;;6.5;6.2;;;;;;
79466;SPS30;68933;49.726;9.226;2023-08-17T07:30:47;6.5;;6.5;6.2;;;;;;
79466;SPS30;68933;49.726;9.226;2023-08-17T07:33:00;5.6;;5.6;5.3;;;;;;
79466;SPS30;68933;49.726;9.226;2023-08-17T07:35:13;5.6;;5.6;5.3;;;;;;
79466;SPS30;68933;49.726;9.226;2023-08-17T07:37:26;7.4;;7.4;7;;;;;;
79466;SPS30;68933;49.726;9.226;2023-08-17T07:39:39;7.4;;7.4;7;;;;;;
79466;SPS30;68933;49.726;9.226;2023-08-17T07:41:52;7.1;;7.1;6.7;;;;;;
79466;SPS30;68933;49.726;9.226;2023-08-17T07:44:05;7.1;;7.1;6.7;;;;;;
79466;SPS30;68933;49.726;9.226;2023-08-17T07:46:18;7.1;;7.1;6.7;;;;;;
79466;SPS30;68933;49.726;9.226;2023-08-17T07:48:31;6.2;;6.2;5.9;;;;;;
79466;SPS30;68933;49.726;9.226;2023-08-17T07:50:47;6.2;;6.2;5.9;;;;;;
79466;SPS30;68933;49.726;9.226;2023-08-17T07:52:57;6;;6;5.7;;;;;;
79466;SPS30;68933;49.726;9.226;2023-08-17T07:55:10;6;;6;5.7;;;;;;
79466;SPS30;68933;49.726;9.226;2023-08-17T07:57:23;6.7;;6.7;6.4;;;;;;
79466;SPS30;68933;49.726;9.226;2023-08-17T07:59:36;6.7;;6.7;6.4;;;;;;
79466;SPS30;68933;49.726;9.226;2023-08-17T08:01:49;7.3;;7.3;7;;;;;;
79466;SPS30;68933;49.726;9.226;2023-08-17T08:04:02;7.3;;7.3;7;;;;;;
79466;SPS30;68933;49.726;9.226;2023-08-17T08:06:15;7.3;;7.3;7;;;;;;
79466;SPS30;68933;49.726;9.226;2023-08-17T08:08:28;6.3;;6.3;6;;;;;;
79466;SPS30;68933;49.726;9.226;2023-08-17T08:10:41;6.3;;6.3;6;;;;;;
79466;SPS30;68933;49.726;9.226;2023-08-17T08:12:54;6.9;;6.9;6.5;;;;;;
79466;SPS30;68933;49.726;9.226;2023-08-17T08:15:07;6.9;;6.9;6.5;;;;;;
79466;SPS30;68933;49.726;9.226;2023-08-17T08:17:20;7.4;;7.4;7;;;;;;
79466;SPS30;68933;49.726;9.226;2023-08-17T08:19:33;7.4;;7.4;7;;;;;;
79466;SPS30;68933;49.726;9.226;2023-08-17T08:21:46;7.9;;7.9;7.5;;;;;;
79466;SPS30;68933;49.726;9.226;2023-08-17T08:23:59;7.9;;7.9;7.5;;;;;;
79466;SPS30;68933;49.726;9.226;2023-08-17T08:26:12;7.9;;7.9;7.5;;;;;;
79466;SPS30;68933;49.726;9.226;2023-08-17T08:28:25;8;;8;7.7;;;;;;
79466;SPS30;68933;49.726;9.226;2023-08-17T08:30:38;8;;8;7.7;;;;;;
79466;SPS30;68933;49.726;9.226;2023-08-17T08:32:51;8.8;;8.8;8.4;;;;;;
79466;SPS30;68933;49.726;9.226;2023-08-17T08:35:04;8.8;;8.8;8.4;;;;;;
79466;SPS30;68933;49.726;9.226;2023-08-17T08:37:17;9;;9;8.6;;;;;;
79466;SPS30;68933;49.726;9.226;2023-08-17T08:39:30;9;;9;8.6;;;;;;
79466;SPS30;68933;49.726;9.226;2023-08-17T08:41:43;8.5;;8.5;8.1;;;;;;
79466;SPS30;68933;49.726;9.226;2023-08-17T08:43:56;8.5;;8.5;8.1;;;;;;
79466;SPS30;68933;49.726;9.226;2023-08-17T08:46:09;8.5;;8.5;8.1;;;;;;
79466;SPS30;68933;49.726;9.226;2023-08-17T08:48:22;9.9;;9.9;9.3;;;;;;
79466;SPS30;68933;49.726;9.226;2023-08-17T08:50:35;9.9;;9.9;9.3;;;;;;
79466;SPS30;68933;49.726;9.226;2023-08-17T08:52:50;12;;11.7;10.9;;;;;;
79466;SPS30;68933;49.726;9.226;2023-08-17T08:55:03;12;;11.7;10.9;;;;;;
79466;SPS30;68933;49.726;9.226;2023-08-17T08:57:14;13.1;;13;12.3;;;;;;
79466;SPS30;68933;49.726;9.226;2023-08-17T08:59:27;13.1;;13;12.3;;;;;;
79466;SPS30;68933;49.726;9.226;2023-08-17T09:01:40;13.7;;13.5;12.7;;;;;;
79466;SPS30;68933;49.726;9.226;2023-08-17T09:03:53;13.7;;13.5;12.7;;;;;;
79466;SPS30;68933;49.726;9.226;2023-08-17T09:06:06;16.1;;15.6;14.5;;;;;;
79466;SPS30;68933;49.726;9.226;2023-08-17T09:08:20;16.1;;15.6;14.5;;;;;;
79466;SPS30;68933;49.726;9.226;2023-08-17T09:10:32;16.1;;15.6;14.5;;;;;;
79466;SPS30;68933;49.726;9.226;2023-08-17T09:12:45;15.4;;15.2;14.4;;;;;;
79466;SPS30;68933;49.726;9.226;2023-08-17T09:14:58;15.4;;15.2;14.4;;;;;;
79466;SPS30;68933;49.726;9.226;2023-08-17T09:17:11;15.8;;15.3;14.3;;;;;;
79466;SPS30;68933;49.726;9.226;2023-08-17T09:19:24;15.8;;15.3;14.3;;;;;;
79466;SPS30;68933;49.726;9.226;2023-08-17T09:21:37;14.8;;14.5;13.6;;;;;;
79466;SPS30;68933;49.726;9.226;2023-08-17T09:23:51;14.8;;14.5;13.6;;;;;;
79466;SPS30;68933;49.726;9.226;2023-08-17T09:26:05;14.9;;14.7;13.9;;;;;;
79466;SPS30;68933;49.726;9.226;2023-08-17T09:28:17;14.9;;14.7;13.9;;;;;;
79466;SPS30;68933;49.726;9.226;2023-08-17T09:30:29;14.9;;14.7;13.9;;;;;;
79466;SPS30;68933;49.726;9.226;2023-08-17T09:32:42;17.7;;17.2;15.9;;;;;;
79466;SPS30;68933;49.726;9.226;2023-08-17T09:34:55;17.7;;17.2;15.9;;;;;;
79466;SPS30;68933;49.726;9.226;2023-08-17T09:37:08;16;;15.8;14.9;;;;;;
79466;SPS30;68933;49.726;9.226;2023-08-17T09:39:21;16.7;;16.5;15.6;;;;;;
79466;SPS30;68933;49.726;9.226;2023-08-17T09:41:38;16.7;;16.5;15.6;;;;;;
79466;SPS30;68933;49.726;9.226;2023-08-17T09:43:47;15.8;;15.8;15.1;;;;;;
79466;SPS30;68933;49.726;9.226;2023-08-17T09:46:00;15.8;;15.8;15.1;;;;;;
79466;SPS30;68933;49.726;9.226;2023-08-17T09:48:14;14.2;;14.2;13.6;;;;;;
79466;SPS30;68933;49.726;9.226;2023-08-17T09:50:26;14.2;;14.2;13.6;;;;;;
79466;SPS30;68933;49.726;9.226;2023-08-17T09:52:39;14.2;;14.2;13.6;;;;;;
79466;SPS30;68933;49.726;9.226;2023-08-17T09:54:52;15.2;;14.8;13.7;;;;;;
79466;SPS30;68933;49.726;9.226;2023-08-17T09:57:05;15.2;;14.8;13.7;;;;;;
79466;SPS30;68933;49.726;9.226;2023-08-17T09:59:18;15.5;;14.9;13.7;;;;;;
79466;SPS30;68933;49.726;9.226;2023-08-17T10:01:31;15.5;;14.9;13.7;;;;;;
79466;SPS30;68933;49.726;9.226;2023-08-17T10:03:44;15.5;;14.9;13.7;;;;;;
79466;SPS30;68933;49.726;9.226;2023-08-17T10:05:59;13.3;;13.3;12.7;;;;;;
79466;SPS30;68933;49.726;9.226;2023-08-17T10:08:10;13.3;;13.3;12.7;;;;;;
79466;SPS30;68933;49.726;9.226;2023-08-17T10:10:24;13.6;;13.6;12.9;;;;;;
79466;SPS30;68933;49.726;9.226;2023-08-17T10:12:36;13.6;;13.6;12.9;;;;;;
79466;SPS30;68933;49.726;9.226;2023-08-17T10:14:49;13.3;;13.3;12.7;;;;;;
79466;SPS30;68933;49.726;9.226;2023-08-17T10:17:04;13.3;;13.3;12.7;;;;;;
79466;SPS30;68933;49.726;9.226;2023-08-17T10:19:17;13.3;;13.3;12.7;;;;;;
79466;SPS30;68933;49.726;9.226;2023-08-17T10:21:28;13.6;;13.6;13;;;;;;
79466;SPS30;68933;49.726;9.226;2023-08-17T10:23:41;13.6;;13.6;13;;;;;;
79466;SPS30;68933;49.726;9.226;2023-08-17T10:25:54;15.1;;15.1;14.4;;;;;;
79466;SPS30;68933;49.726;9.226;2023-08-17T10:28:07;15.1;;15.1;14.4;;;;;;
79466;SPS30;68933;49.726;9.226;2023-08-17T10:30:20;14.6;;14.6;13.9;;;;;;
79466;SPS30;68933;49.726;9.226;2023-08-17T10:32:33;14.6;;14.6;13.9;;;;;;
79466;SPS30;68933;49.726;9.226;2023-08-17T10:34:46;14.6;;14.6;13.9;;;;;;
79466;SPS30;68933;49.726;9.226;2023-08-17T10:36:59;13.4;;13.4;12.8;;;;;;
79466;SPS30;68933;49.726;9.226;2023-08-17T10:39:28;13.4;;13.4;12.8;;;;;;
79466;SPS30;68933;49.726;9.226;2023-08-17T10:41:25;13.8;;13.8;13.2;;;;;;
79466;SPS30;68933;49.726;9.226;2023-08-17T10:43:52;13.8;;13.8;13.2;;;;;;
79466;SPS30;68933;49.726;9.226;2023-08-17T10:45:51;14.2;;14.2;13.5;;;;;;
79466;SPS30;68933;49.726;9.226;2023-08-17T10:48:24;14.2;;14.2;13.5;;;;;;
79466;SPS30;68933;49.726;9.226;2023-08-17T10:50:20;14.2;;14.2;13.5;;;;;;
79466;SPS30;68933;49.726;9.226;2023-08-17T10:52:30;15.3;;15.3;14.6;;;;;;
79466;SPS30;68933;49.726;9.226;2023-08-17T10:54:43;15.3;;15.3;14.6;;;;;;
79466;SPS30;68933;49.726;9.226;2023-08-17T10:56:56;14.1;;14.1;13.4;;;;;;
79466;SPS30;68933;49.726;9.226;2023-08-17T10:59:18;14.1;;14.1;13.4;;;;;;
79466;SPS30;68933;49.726;9.226;2023-08-17T11:01:39;14.7;;14.7;14;;;;;;
79466;SPS30;68933;49.726;9.226;2023-08-17T11:03:35;14.7;;14.7;14;;;;;;
79466;SPS30;68933;49.726;9.226;2023-08-17T11:05:48;14.7;;14.7;14;;;;;;
79466;SPS30;68933;49.726;9.226;2023-08-17T11:08:01;15.4;;15.4;14.7;;;;;;
79466;SPS30;68933;49.726;9.226;2023-08-17T11:10:26;15.4;;15.4;14.7;;;;;;
79466;SPS30;68933;49.726;9.226;2023-08-17T11:12:27;14.9;;14.8;14;;;;;;
79466;SPS30;68933;49.726;9.226;2023-08-17T11:14:40;14.9;;14.8;14;;;;;;
79466;SPS30;68933;49.726;9.226;2023-08-17T11:16:53;16.4;;16.2;15.3;;;;;;
79466;SPS30;68933;49.726;9.226;2023-08-17T11:19:06;16.4;;16.2;15.3;;;;;;
79466;SPS30;68933;49.726;9.226;2023-08-17T11:21:19;16.4;;16.2;15.3;;;;;;
79466;SPS30;68933;49.726;9.226;2023-08-17T11:23:33;16.8;;16.8;16;;;;;;
79466;SPS30;68933;49.726;9.226;2023-08-17T11:25:45;16.8;;16.8;16;;;;;;
79466;SPS30;68933;49.726;9.226;2023-08-17T11:27:58;16.5;;16.5;15.8;;;;;;
79466;SPS30;68933;49.726;9.226;2023-08-17T11:30:11;16.5;;16.5;15.8;;;;;;
79466;SPS30;68933;49.726;9.226;2023-08-17T11:32:24;16.8;;16.8;16;;;;;;
79466;SPS30;68933;49.726;9.226;2023-08-17T11:34:37;16.8;;16.8;16;;;;;;
79466;SPS30;68933;49.726;9.226;2023-08-17T11:36:50;16.8;;16.8;16;;;;;;
79466;SPS30;68933;49.726;9.226;2023-08-17T11:39:03;15.3;;15.3;14.6;;;;;;
79466;SPS30;68933;49.726;9.226;2023-08-17T11:41:16;15.3;;15.3;14.6;;;;;;
79466;SPS30;68933;49.726;9.226;2023-08-17T11:43:29;15.2;;15.2;14.5;;;;;;
79466;SPS30;68933;49.726;9.226;2023-08-17T11:45:42;15.2;;15.2;14.5;;;;;;
79466;SPS30;68933;49.726;9.226;2023-08-17T11:47:55;15.5;;15.5;14.8;;;;;;
79466;SPS30;68933;49.726;9.226;2023-08-17T11:50:08;15.5;;15.5;14.8;;;;;;
79466;SPS30;68933;49.726;9.226;2023-08-17T11:52:21;13.9;;13.9;13.2;;;;;;
79466;SPS30;68933;49.726;9.226;2023-08-17T11:54:34;13.9;;13.9;13.2;;;;;;
79466;SPS30;68933;49.726;9.226;2023-08-17T11:56:47;15.1;;15.1;14.4;;;;;;
79466;SPS30;68933;49.726;9.226;2023-08-17T11:59:07;15.1;;15.1;14.4;;;;;;
79466;SPS30;68933;49.726;9.226;2023-08-17T12:01:13;15.1;;15.1;14.4;;;;;;
79466;SPS30;68933;49.726;9.226;2023-08-17T12:03:26;15.4;;15.4;14.7;;;;;;
79466;SPS30;68933;49.726;9.226;2023-08-17T12:05:39;15.4;;15.4;14.7;;;;;;
79466;SPS30;68933;49.726;9.226;2023-08-17T12:07:52;14.1;;14.1;13.4;;;;;;
79466;SPS30;68933;49.726;9.226;2023-08-17T12:10:05;14.1;;14.1;13.4;;;;;;
79466;SPS30;68933;49.726;9.226;2023-08-17T12:12:18;13.8;;13.8;13.2;;;;;;
79466;SPS30;68933;49.726;9.226;2023-08-17T12:14:31;13.8;;13.8;13.2;;;;;;
79466;SPS30;68933;49.726;9.226;2023-08-17T12:16:45;14.9;;14.9;14.3;;;;;;
79466;SPS30;68933;49.726;9.226;2023-08-17T12:18:57;14.9;;14.9;14.3;;;;;;
79466;SPS30;68933;49.726;9.226;2023-08-17T12:21:10;12.6;;12.6;12;;;;;;
79466;SPS30;68933;49.726;9.226;2023-08-17T12:23:23;12.6;;12.6;12;;;;;;
79466;SPS30;68933;49.726;9.226;2023-08-17T12:25:36;12.6;;12.6;12;;;;;;
79466;SPS30;68933;49.726;9.226;2023-08-17T12:27:49;12.4;;12.4;11.8;;;;;;
79466;SPS30;68933;49.726;9.226;2023-08-17T12:30:02;12.4;;12.4;11.8;;;;;;